首页
METAR-TAF:

METAR-TAF

机场 :

迪奥里·哈马尼国际机场

尼亞美, 尼日尔

纬度: 13-29N, 经度: 002-10E, 海拔: 223米

当前天气观测

该预报发布于1小时和11分钟前的23:00 UTC
风速17节,风向南转西南
温度 31°C
湿度 55%
气压 1009 hPa
能見度: 7000

METAR: DRRN 192300Z 20017KT 7000 NSC 31/21 Q1009 NOSIG

时间: 01:11 (00:11 UTC)

预报

该预报发布于1小时和11分钟前的23:00 UTC
预报有效从20日的 00点(UTC)到 21日的 06点(UTC)
风速15节,风向西转西南
能見度: 6000
短暂存在
从 20日的 03点(UTC)到 20日的 07点(UTC)
能見度: 3000
浮尘
几率 40% :
短暂存在
从 20日的 09点(UTC)到 20日的 15点(UTC)
风速25节,风向,有时为45节阵风
能見度: 0800
多云层高于2000英尺
散云层高于3000英尺, 积雨云.
飑, 高吹尘, 雷暴, 雨

TAF: DRRN 192300Z 2000/2106 24015KT 6000 NSC TEMPO 2003/2007 3000 DU PROB40 TEMPO 2009/2015 08025G45KT 0800 SQ BLDU TSRA BKN020 SCT030CB

超过4000个机场的气象观测和天气预报(METAR&TAF报告)。

可查询的气象台以黄色和红色小点在地图上表示。

将鼠标移到小点上方,可查看气象台名称。

然后点击查看天气观测和预报。

如需切换地图:点击带黑十字的绿色按钮放大地图;点击带横线的绿色按钮缩小地图;或者点击绿色箭头查看邻近地区的地图。


METAR-TAF: